createdAt,value
2022-12-08T00:03:48.952Z,33.38
2022-12-08T00:09:09.169Z,27.98
2022-12-08T00:14:09.889Z,28.52
2022-12-08T00:19:10.713Z,27.20
2022-12-08T00:24:11.708Z,27.55
2022-12-08T00:29:17.355Z,23.02
2022-12-08T00:34:18.887Z,19.25
2022-12-08T00:39:19.714Z,26.90
2022-12-08T00:44:20.649Z,27.45
2022-12-08T00:49:21.945Z,17.02
2022-12-08T00:54:23.141Z,19.87
2022-12-08T00:59:24.040Z,16.73
2022-12-08T01:04:24.782Z,14.23
2022-12-08T01:09:26.619Z,16.83
2022-12-08T01:14:27.388Z,18.50
2022-12-08T01:19:28.423Z,19.08
2022-12-08T01:24:29.215Z,15.98
2022-12-08T01:29:29.990Z,19.70
2022-12-08T01:34:30.817Z,24.45
2022-12-08T01:39:31.699Z,17.20
2022-12-08T01:44:58.524Z,19.05
2022-12-08T01:49:59.763Z,18.27
2022-12-08T01:55:16.021Z,18.62
2022-12-08T02:00:20.776Z,20.10
2022-12-08T02:05:24.977Z,15.02
2022-12-08T02:10:29.968Z,18.42
2022-12-08T02:16:00.915Z,18.27
2022-12-08T02:21:25.926Z,22.80
2022-12-08T02:32:06.938Z,18.17
2022-12-08T02:37:32.793Z,14.25
2022-12-08T02:42:43.345Z,13.68
2022-12-08T02:47:44.715Z,15.52
2022-12-08T02:52:47.115Z,13.48
2022-12-08T02:59:37.250Z,12.90
2022-12-08T03:04:51.063Z,13.80
2022-12-08T03:10:00.232Z,14.73
2022-12-08T03:15:09.869Z,12.65
2022-12-08T03:20:15.587Z,13.48
2022-12-08T03:25:20.403Z,10.30
2022-12-08T03:30:21.207Z,11.90
2022-12-08T03:35:25.999Z,12.77
2022-12-08T03:40:26.722Z,11.60
2022-12-08T03:45:28.118Z,16.70
2022-12-08T03:50:28.820Z,12.60
2022-12-08T03:55:29.997Z,20.05
2022-12-08T04:00:30.740Z,15.30
2022-12-08T04:05:31.541Z,14.90
2022-12-08T04:10:32.281Z,12.27
2022-12-08T04:15:33.185Z,18.02
2022-12-08T04:20:38.543Z,18.77
2022-12-08T04:25:39.293Z,19.15
2022-12-08T04:30:40.658Z,14.35
2022-12-08T04:35:41.422Z,17.42
2022-12-08T04:40:42.368Z,15.98
2022-12-08T04:45:43.234Z,12.48
2022-12-08T04:50:44.893Z,16.20
2022-12-08T04:55:48.199Z,15.82
2022-12-08T05:00:49.155Z,18.62
2022-12-08T05:05:49.929Z,15.63
2022-12-08T05:10:50.657Z,18.73
2022-12-08T05:15:51.621Z,20.10
2022-12-08T05:20:52.489Z,17.65
2022-12-08T05:25:53.453Z,17.90
2022-12-08T05:30:54.159Z,15.60
2022-12-08T05:35:54.947Z,18.87
2022-12-08T05:40:55.663Z,16.15
2022-12-08T05:45:56.687Z,16.62
2022-12-08T05:50:57.541Z,19.60
2022-12-08T05:55:58.570Z,19.75
2022-12-08T06:00:59.329Z,23.08
2022-12-08T06:06:00.157Z,53.83
2022-12-08T06:11:01.269Z,19.17
2022-12-08T06:16:06.534Z,62.33
2022-12-08T06:21:10.239Z,19.70
2022-12-08T06:26:13.620Z,18.37
2022-12-08T06:31:23.595Z,18.37
2022-12-08T06:36:27.807Z,16.62
2022-12-08T06:41:28.575Z,20.10
2022-12-08T06:46:29.669Z,19.62
2022-12-08T06:51:30.556Z,22.25
2022-12-08T06:56:31.568Z,24.17
2022-12-08T07:01:32.442Z,18.65
2022-12-08T07:06:33.479Z,13.57
2022-12-08T07:11:34.320Z,21.30
2022-12-08T07:16:35.233Z,26.48
2022-12-08T07:21:36.215Z,21.37
2022-12-08T07:26:37.621Z,24.67
2022-12-08T07:31:38.393Z,15.32
2022-12-08T07:36:39.876Z,14.05
2022-12-08T07:41:40.621Z,11.48
2022-12-08T07:46:41.525Z,11.90
2022-12-08T07:51:42.390Z,10.95
2022-12-08T07:56:43.707Z,13.85
2022-12-08T08:01:45.821Z,13.27
2022-12-08T08:06:46.724Z,12.53
2022-12-08T08:12:07.190Z,10.25
2022-12-08T08:17:23.725Z,14.65
2022-12-08T08:22:25.898Z,14.40
2022-12-08T08:27:26.946Z,9.68
2022-12-08T08:32:27.794Z,10.05
2022-12-08T08:37:28.667Z,11.85
2022-12-08T08:42:29.461Z,10.25
2022-12-08T08:47:30.364Z,10.43
2022-12-08T08:52:31.100Z,8.13
2022-12-08T08:57:32.230Z,12.68
2022-12-08T09:02:33.042Z,11.68
2022-12-08T09:07:33.797Z,12.52
2022-12-08T09:12:34.548Z,8.95
2022-12-08T09:17:35.501Z,10.27
2022-12-08T09:22:36.310Z,14.05
2022-12-08T09:27:37.058Z,8.85
2022-12-08T09:32:37.785Z,14.55
2022-12-08T09:37:38.540Z,12.20
2022-12-08T09:42:50.593Z,8.38
2022-12-08T09:48:04.521Z,5.18
2022-12-08T09:53:35.656Z,6.87
2022-12-08T10:00:13.652Z,4.50
2022-12-08T10:05:15.078Z,5.82
2022-12-08T10:10:37.335Z,7.03
2022-12-08T10:17:13.933Z,7.47
2022-12-08T10:22:23.992Z,7.70
2022-12-08T10:27:25.559Z,8.68
2022-12-08T10:32:33.480Z,9.25
2022-12-08T10:37:34.979Z,8.18
2022-12-08T10:42:40.542Z,10.25
2022-12-08T10:47:45.065Z,9.65
2022-12-08T10:52:59.166Z,13.45
2022-12-08T10:57:59.908Z,6.15
2022-12-08T11:03:04.586Z,7.25
2022-12-08T11:08:07.961Z,7.68
2022-12-08T11:13:22.234Z,11.18
2022-12-08T11:18:42.823Z,6.03
2022-12-08T11:23:49.359Z,7.20
2022-12-08T11:28:50.126Z,10.63
2022-12-08T11:33:52.076Z,10.77
2022-12-08T11:38:57.476Z,7.00
2022-12-08T11:45:05.569Z,5.68
2022-12-08T11:50:27.628Z,6.28
2022-12-08T11:55:37.305Z,6.03
2022-12-08T12:00:40.448Z,7.43
2022-12-08T12:13:45.919Z,6.50
2022-12-08T12:18:51.725Z,8.07
2022-12-08T12:23:56.627Z,8.90
2022-12-08T12:29:16.352Z,5.85
2022-12-08T12:34:31.207Z,8.55
2022-12-08T12:39:45.549Z,9.48
2022-12-08T12:44:46.449Z,4.78
2022-12-08T12:49:49.404Z,4.40
2022-12-08T12:56:36.237Z,6.00
2022-12-08T13:01:53.878Z,13.27
2022-12-08T13:06:54.779Z,6.18
2022-12-08T13:11:59.864Z,6.82
2022-12-08T13:17:04.220Z,8.25
2022-12-08T13:22:48.718Z,5.85
2022-12-08T13:27:53.836Z,8.52
2022-12-08T13:38:31.612Z,7.25
2022-12-08T14:00:19.552Z,6.68
2022-12-08T14:05:40.636Z,6.72
2022-12-08T14:11:05.578Z,9.35
2022-12-08T14:16:26.399Z,8.00
2022-12-08T14:21:32.809Z,7.85
2022-12-08T14:26:38.136Z,6.50
2022-12-08T14:31:39.541Z,8.63
2022-12-08T14:36:40.661Z,10.05
2022-12-08T14:41:58.651Z,9.13
2022-12-08T14:47:07.665Z,9.63
2022-12-08T14:52:10.774Z,16.10
2022-12-08T14:57:14.362Z,18.02
2022-12-08T15:02:30.452Z,13.02
2022-12-08T15:08:21.603Z,11.68
2022-12-08T15:13:22.664Z,12.57
2022-12-08T15:18:38.587Z,12.52
2022-12-08T15:23:44.060Z,11.73
2022-12-08T15:28:44.827Z,12.82
2022-12-08T15:33:45.970Z,9.55
2022-12-08T15:38:46.829Z,19.10
2022-12-08T15:43:47.717Z,9.45
2022-12-08T15:48:51.354Z,13.68
2022-12-08T15:53:54.479Z,10.18
2022-12-08T15:58:56.936Z,13.35
2022-12-08T16:09:35.539Z,13.57
2022-12-08T16:20:14.668Z,10.68
2022-12-08T16:25:20.581Z,15.60
2022-12-08T16:30:22.507Z,9.70
2022-12-08T16:35:23.409Z,15.57
2022-12-08T16:40:24.603Z,21.42
2022-12-08T16:45:28.624Z,20.12
2022-12-08T16:50:32.532Z,20.92
2022-12-08T16:55:34.020Z,16.20
2022-12-08T17:00:36.131Z,14.50
2022-12-08T17:05:40.035Z,17.48
2022-12-08T17:10:41.393Z,15.75
2022-12-08T17:15:42.219Z,20.90
2022-12-08T17:20:42.949Z,20.42
2022-12-08T17:25:44.128Z,19.70
2022-12-08T17:30:44.853Z,24.02
2022-12-08T17:35:50.097Z,19.00
2022-12-08T17:40:56.927Z,13.48
2022-12-08T17:45:59.604Z,17.00
2022-12-08T17:51:01.160Z,11.65
2022-12-08T17:56:01.947Z,12.77
2022-12-08T18:01:07.762Z,10.57
2022-12-08T18:06:11.918Z,13.65
2022-12-08T18:11:17.096Z,13.70
2022-12-08T18:16:20.362Z,19.92
2022-12-08T18:21:23.661Z,16.67
2022-12-08T18:26:24.983Z,14.40
2022-12-08T18:31:26.147Z,12.27
2022-12-08T18:36:26.931Z,17.75
2022-12-08T18:41:28.015Z,15.68
2022-12-08T18:46:28.929Z,15.27
2022-12-08T18:51:29.792Z,12.40
2022-12-08T18:56:33.261Z,16.83
2022-12-08T19:01:36.338Z,20.20
2022-12-08T19:06:39.379Z,25.23
2022-12-08T19:11:41.431Z,27.83
2022-12-08T19:16:42.250Z,25.30
2022-12-08T19:21:46.490Z,18.70
2022-12-08T19:26:48.287Z,13.57
2022-12-08T19:31:49.177Z,15.82
2022-12-08T19:36:50.351Z,19.20
2022-12-08T19:42:09.803Z,17.45
2022-12-08T19:47:10.938Z,19.48
2022-12-08T19:52:11.774Z,17.87
2022-12-08T19:57:12.846Z,12.48
2022-12-08T20:02:13.761Z,14.07
2022-12-08T20:07:14.671Z,13.15
2022-12-08T20:12:15.515Z,10.80
2022-12-08T20:17:16.325Z,9.73
2022-12-08T20:22:17.093Z,9.70
2022-12-08T20:27:18.962Z,8.60
2022-12-08T20:32:20.236Z,10.23
2022-12-08T20:37:20.999Z,11.00
2022-12-08T20:42:23.277Z,17.12
2022-12-08T20:47:24.491Z,11.20
2022-12-08T20:52:25.433Z,11.45
2022-12-08T20:57:26.263Z,10.43
2022-12-08T21:02:27.172Z,11.65
2022-12-08T21:07:28.226Z,16.77
2022-12-08T21:12:30.107Z,41.13
2022-12-08T21:17:31.089Z,40.40
2022-12-08T21:22:32.143Z,16.52
2022-12-08T21:27:33.162Z,15.02
2022-12-08T21:32:34.774Z,12.80
2022-12-08T21:37:36.092Z,17.55
2022-12-08T21:42:42.855Z,26.50
2022-12-08T21:47:45.826Z,35.67
2022-12-08T21:52:48.284Z,15.65
2022-12-08T21:57:49.245Z,10.33
2022-12-08T22:02:50.302Z,11.27
2022-12-08T22:07:51.479Z,31.20
2022-12-08T22:12:52.462Z,24.40
2022-12-08T22:17:53.512Z,22.65
2022-12-08T22:22:54.556Z,17.95
2022-12-08T22:27:55.565Z,27.87
2022-12-08T22:32:56.943Z,22.52
2022-12-08T22:37:57.744Z,39.33
2022-12-08T22:42:58.761Z,91.85
2022-12-08T22:47:59.541Z,97.22
2022-12-08T22:53:00.990Z,81.68
2022-12-08T22:58:01.748Z,69.37
2022-12-08T23:03:04.340Z,46.60
2022-12-08T23:08:07.168Z,36.25
2022-12-08T23:13:08.464Z,25.15
2022-12-08T23:18:13.906Z,23.30
2022-12-08T23:23:14.809Z,10.52
2022-12-08T23:28:15.730Z,13.23
2022-12-08T23:33:16.716Z,27.65
2022-12-08T23:38:17.922Z,14.93
2022-12-08T23:43:19.656Z,11.98
2022-12-08T23:48:20.480Z,12.18
2022-12-08T23:53:21.233Z,10.85
2022-12-08T23:58:22.233Z,12.40
